KWYS

Details ICAO KWYS (WYS)
Name Yellowstone
Region United States
Timezone America/Denver (UTC-7.0)
Plans Departing 23
Arriving 41
Stats Elevation 6,644 ft / 2,025 m (AMSL)
Location 44.688398° -111.117638°
Runways 1
Magnetic Variation 11.724° E
Sunrise 2017-12-15 14:56:22 UTC / 2017-12-15 07:56:22 Local
Sunset 2017-12-15 23:45:58 UTC / 2017-12-15 16:45:58 Local
Advertisement - Login to hide

Runways

ID Width Length Bearing (true) Bearing (mag) Surface Threshold Offset Overrun Length
01 150 ft / 46 m 8,399 ft / 2,560 m 26.19° 14.47° Asphalt 0 ft / 0 m 0 ft / 0 m
19 150 ft / 46 m 8,399 ft / 2,560 m 206.20° 194.48° Asphalt 0 ft / 0 m 0 ft / 0 m

Approach Navaids

Runway Type Ident Frequency Range Bearing (true) Bearing (mag) Slope Elevation
01 Localiser ILOW 110.70 MHz 18 nm / 33 km 26.20° 14.48° - 6,642 ft / 2,024 m (AMSL)
01 Glidescope ILOW 110.70 MHz 10 nm / 19 km 26.19° 14.47° 3.00° 6,642 ft / 2,024 m (AMSL)

Map

Weather


0- 5 10 15 20 25 30 35+ Temperature / ° C

Clouds and Precipitation
Forecast for 2017-12-16 06:00 UTC. Updated 28 minutes ago

Ground ~20,000 ft ~40,000 ft Winds

METAR

KWYS 160335Z AUTO VRB03KT 10SM BKN090 BKN120 M04/M07 A2995 RMK AO2

TAF

Not found

Frequencies

Unicom 123.00 MHz CTAF/UNICOM
Warning: Do not use this data for real-world aviation or navigation. No guarantee of current accuracy is given.